createdAt,value
2019-05-26T00:01:28.381Z,79.30
2019-05-26T00:03:56.856Z,79.30
2019-05-26T00:06:27.473Z,79.10
2019-05-26T00:08:55.656Z,79.50
2019-05-26T00:11:24.116Z,79.40
2019-05-26T00:13:52.963Z,79.30
2019-05-26T00:16:21.518Z,79.30
2019-05-26T00:18:50.029Z,79.60
2019-05-26T00:21:18.586Z,79.70
2019-05-26T00:23:47.060Z,80.60
2019-05-26T00:26:15.586Z,80.70
2019-05-26T00:28:44.174Z,80.60
2019-05-26T00:31:12.734Z,81.00
2019-05-26T00:33:41.210Z,80.80
2019-05-26T00:36:09.731Z,81.50
2019-05-26T00:38:38.226Z,81.60
2019-05-26T00:41:06.771Z,81.40
2019-05-26T00:43:35.786Z,82.40
2019-05-26T00:46:06.410Z,82.50
2019-05-26T00:48:35.284Z,82.60
2019-05-26T00:51:04.154Z,82.80
2019-05-26T00:53:32.740Z,83.30
2019-05-26T00:56:01.211Z,83.60
2019-05-26T00:58:29.747Z,83.70
2019-05-26T01:01:00.782Z,83.80
2019-05-26T01:03:28.515Z,84.10
2019-05-26T01:05:57.017Z,84.70
2019-05-26T01:08:25.562Z,85.00
2019-05-26T01:10:54.044Z,85.30
2019-05-26T01:13:22.617Z,85.50
2019-05-26T01:15:51.120Z,85.80
2019-05-26T01:18:19.654Z,85.50
2019-05-26T01:20:48.139Z,85.00
2019-05-26T01:23:16.627Z,85.20
2019-05-26T01:25:45.119Z,84.90
2019-05-26T01:28:13.699Z,85.70
2019-05-26T01:30:42.206Z,85.50
2019-05-26T01:33:10.661Z,85.20
2019-05-26T01:35:40.795Z,84.70
2019-05-26T01:38:23.268Z,84.70
2019-05-26T01:40:44.213Z,85.20
2019-05-26T01:43:14.128Z,85.70
2019-05-26T01:45:42.697Z,85.90
2019-05-26T01:48:11.276Z,86.00
2019-05-26T01:50:40.094Z,85.80
2019-05-26T01:53:08.693Z,85.70
2019-05-26T01:55:37.324Z,85.80
2019-05-26T01:58:05.960Z,87.80
2019-05-26T02:00:34.594Z,87.10
2019-05-26T02:03:03.317Z,87.40
2019-05-26T02:05:31.957Z,87.50
2019-05-26T02:08:00.480Z,87.50
2019-05-26T02:10:29.207Z,87.40
2019-05-26T02:12:57.841Z,87.40
2019-05-26T02:15:26.929Z,87.20
2019-05-26T02:17:55.736Z,87.10
2019-05-26T02:20:24.711Z,87.10
2019-05-26T02:22:53.662Z,88.20
2019-05-26T02:25:22.392Z,87.50
2019-05-26T02:27:50.948Z,87.90
2019-05-26T02:30:19.757Z,87.90
2019-05-26T02:32:48.376Z,87.80
2019-05-26T02:35:18.131Z,88.20
2019-05-26T02:37:46.761Z,88.30
2019-05-26T02:40:16.384Z,87.80
2019-05-26T02:42:47.518Z,87.70
2019-05-26T02:45:18.277Z,87.60
2019-05-26T02:47:46.941Z,87.40
2019-05-26T02:50:16.472Z,87.30
2019-05-26T02:52:45.228Z,87.20
2019-05-26T02:55:15.393Z,87.00
2019-05-26T02:57:43.954Z,87.40
2019-05-26T03:00:14.149Z,87.60
2019-05-26T03:02:42.769Z,87.30
2019-05-26T03:05:13.590Z,87.20
2019-05-26T03:07:43.671Z,87.90
2019-05-26T03:10:15.291Z,87.80
2019-05-26T03:12:44.325Z,87.50
2019-05-26T03:15:14.676Z,87.30
2019-05-26T03:17:43.328Z,87.40
2019-05-26T03:20:14.862Z,87.10
2019-05-26T03:22:43.536Z,86.80
2019-05-26T03:25:14.203Z,87.50
2019-05-26T03:27:42.836Z,87.50
2019-05-26T03:30:11.844Z,88.50
2019-05-26T03:32:40.480Z,89.30
2019-05-26T03:35:10.187Z,89.40
2019-05-26T03:37:38.842Z,89.80
2019-05-26T03:40:08.534Z,89.60
2019-05-26T03:42:37.175Z,89.40
2019-05-26T03:45:07.584Z,89.20
2019-05-26T03:47:36.244Z,89.60
2019-05-26T03:50:08.447Z,89.50
2019-05-26T03:52:37.441Z,89.10
2019-05-26T03:55:07.532Z,89.50
2019-05-26T03:57:36.070Z,89.80
2019-05-26T04:00:06.706Z,89.90
2019-05-26T04:02:37.548Z,90.00
2019-05-26T04:05:09.093Z,90.00
2019-05-26T04:07:37.599Z,90.20
2019-05-26T04:10:08.010Z,90.20
2019-05-26T04:12:36.564Z,90.10
2019-05-26T04:15:06.734Z,90.00
2019-05-26T04:17:35.336Z,89.60
2019-05-26T04:20:05.098Z,89.90
2019-05-26T04:22:33.640Z,89.90
2019-05-26T04:25:02.257Z,90.10
2019-05-26T04:27:30.758Z,90.30
2019-05-26T04:29:59.282Z,90.10
2019-05-26T04:32:27.757Z,90.00
2019-05-26T04:34:56.570Z,89.80
2019-05-26T04:37:25.033Z,89.80
2019-05-26T04:39:53.504Z,89.90
2019-05-26T04:42:22.139Z,89.80
2019-05-26T04:44:50.705Z,90.00
2019-05-26T04:47:19.447Z,90.10
2019-05-26T04:49:47.984Z,90.20
2019-05-26T04:52:16.824Z,90.30
2019-05-26T04:54:45.311Z,90.40
2019-05-26T04:57:13.845Z,90.30
2019-05-26T04:59:44.906Z,90.30
2019-05-26T05:02:13.510Z,90.50
2019-05-26T05:04:41.967Z,90.60
2019-05-26T05:07:10.455Z,91.10
2019-05-26T05:09:38.963Z,91.10
2019-05-26T05:12:07.831Z,91.00
2019-05-26T05:14:36.303Z,90.80
2019-05-26T05:17:05.210Z,90.70
2019-05-26T05:19:35.578Z,90.70
2019-05-26T05:22:04.449Z,90.60
2019-05-26T05:24:32.956Z,90.60
2019-05-26T05:27:01.495Z,90.80
2019-05-26T05:29:30.093Z,90.80
2019-05-26T05:31:59.050Z,90.90
2019-05-26T05:34:27.610Z,91.00
2019-05-26T05:36:56.215Z,91.10
2019-05-26T05:39:24.952Z,90.70
2019-05-26T05:41:53.771Z,90.80
2019-05-26T05:44:24.551Z,90.50
2019-05-26T05:46:53.096Z,90.50
2019-05-26T05:49:21.999Z,90.40
2019-05-26T05:51:50.532Z,90.50
2019-05-26T05:54:19.362Z,90.50
2019-05-26T05:56:47.912Z,90.40
2019-05-26T05:59:16.449Z,90.50
2019-05-26T06:01:44.980Z,90.20
2019-05-26T06:04:13.477Z,90.20
2019-05-26T06:06:42.428Z,90.20
2019-05-26T06:09:13.967Z,90.20
2019-05-26T06:11:42.503Z,90.00
2019-05-26T06:14:10.957Z,90.40
2019-05-26T06:16:39.725Z,90.20
2019-05-26T06:19:08.190Z,90.50
2019-05-26T06:21:45.164Z,90.20
2019-05-26T06:24:13.738Z,90.30
2019-05-26T06:26:42.614Z,90.50
2019-05-26T06:29:11.146Z,90.40
2019-05-26T06:31:39.716Z,90.40
2019-05-26T06:34:08.261Z,90.60
2019-05-26T06:36:36.730Z,90.60
2019-05-26T06:39:07.407Z,90.70
2019-05-26T06:41:36.111Z,90.50
2019-05-26T06:44:04.908Z,90.20
2019-05-26T06:46:33.472Z,90.00
2019-05-26T06:49:02.020Z,90.00
2019-05-26T06:51:30.552Z,90.10
2019-05-26T06:53:59.073Z,90.00
2019-05-26T06:56:27.619Z,89.70
2019-05-26T06:58:56.212Z,89.60
2019-05-26T07:01:24.797Z,89.10
2019-05-26T07:03:53.321Z,88.60
2019-05-26T07:06:21.918Z,87.70
2019-05-26T07:08:52.021Z,87.20
2019-05-26T07:11:22.103Z,87.50
2019-05-26T07:13:52.179Z,87.00
2019-05-26T07:16:36.738Z,86.60
2019-05-26T07:18:51.155Z,85.90
2019-05-26T07:21:28.351Z,85.10
2019-05-26T07:23:57.175Z,84.50
2019-05-26T07:26:31.954Z,83.80
2019-05-26T07:29:00.253Z,83.80
2019-05-26T07:31:48.251Z,83.60
2019-05-26T07:34:04.665Z,83.50
2019-05-26T07:36:33.355Z,82.40
2019-05-26T07:39:01.915Z,82.00
2019-05-26T07:41:30.514Z,81.50
2019-05-26T07:43:58.983Z,81.80
2019-05-26T07:46:27.580Z,79.70
2019-05-26T07:48:57.412Z,78.90
2019-05-26T07:51:26.030Z,77.30
2019-05-26T07:53:56.266Z,77.80
2019-05-26T07:56:25.011Z,76.70
2019-05-26T07:58:53.667Z,75.30
2019-05-26T08:01:24.428Z,73.80
2019-05-26T08:03:52.765Z,74.20
2019-05-26T08:06:21.451Z,72.90
2019-05-26T08:08:50.263Z,72.10
2019-05-26T08:11:20.449Z,73.30
2019-05-26T08:13:49.019Z,72.60
2019-05-26T08:16:17.851Z,71.50
2019-05-26T08:18:46.594Z,70.60
2019-05-26T08:21:15.305Z,67.40
2019-05-26T08:23:45.468Z,65.00
2019-05-26T08:26:15.581Z,66.70
2019-05-26T08:28:44.224Z,65.80
2019-05-26T08:31:15.087Z,62.20
2019-05-26T08:33:43.680Z,60.50
2019-05-26T08:36:13.971Z,60.70
2019-05-26T08:38:42.561Z,61.70
2019-05-26T08:41:11.194Z,60.90
2019-05-26T08:43:39.787Z,63.60
2019-05-26T08:46:08.487Z,61.60
2019-05-26T08:48:37.132Z,59.50
2019-05-26T08:51:14.614Z,59.80
2019-05-26T08:53:43.234Z,59.40
2019-05-26T08:56:12.132Z,57.90
2019-05-26T08:58:40.846Z,58.20
2019-05-26T09:01:09.652Z,57.90
2019-05-26T09:03:39.729Z,57.20
2019-05-26T09:06:08.224Z,59.10
2019-05-26T09:08:36.764Z,59.20
2019-05-26T09:11:05.395Z,60.60
2019-05-26T09:13:33.942Z,59.80
2019-05-26T09:16:02.626Z,59.50
2019-05-26T09:18:31.630Z,57.60
2019-05-26T09:21:06.407Z,56.50
2019-05-26T09:23:32.275Z,57.00
2019-05-26T09:26:00.973Z,57.30
2019-05-26T09:28:29.638Z,59.20
2019-05-26T09:30:58.366Z,57.40
2019-05-26T09:33:27.026Z,56.00
2019-05-26T09:35:55.618Z,54.00
2019-05-26T09:38:24.222Z,55.00
2019-05-26T09:40:53.327Z,55.60
2019-05-26T09:43:23.619Z,57.20
2019-05-26T09:45:52.511Z,56.50
2019-05-26T09:48:21.102Z,54.60
2019-05-26T09:50:49.677Z,55.10
2019-05-26T09:53:18.180Z,53.90
2019-05-26T09:55:46.687Z,54.10
2019-05-26T09:58:15.187Z,53.80
2019-05-26T10:00:44.344Z,54.20
2019-05-26T10:03:13.765Z,53.00
2019-05-26T10:05:42.721Z,51.20
2019-05-26T10:08:12.613Z,51.50
2019-05-26T10:10:41.195Z,51.80
2019-05-26T10:13:09.794Z,53.20
2019-05-26T10:15:38.389Z,52.40
2019-05-26T10:18:07.043Z,53.50
2019-05-26T10:20:35.575Z,52.30
2019-05-26T10:23:04.108Z,52.80
2019-05-26T10:25:32.641Z,52.00
2019-05-26T10:28:01.223Z,52.90
2019-05-26T10:30:29.752Z,52.40
2019-05-26T10:32:58.593Z,52.60
2019-05-26T10:35:28.735Z,52.20
2019-05-26T10:37:59.271Z,52.50
2019-05-26T10:40:29.322Z,52.90
2019-05-26T10:42:57.894Z,54.50
2019-05-26T10:45:26.457Z,54.50
2019-05-26T10:47:55.273Z,54.40
2019-05-26T10:50:25.480Z,55.00
2019-05-26T10:52:56.184Z,54.80
2019-05-26T10:55:25.065Z,55.90
2019-05-26T10:57:53.876Z,56.80
2019-05-26T11:00:22.576Z,57.40
2019-05-26T11:02:51.084Z,55.00
2019-05-26T11:05:19.552Z,56.20
2019-05-26T11:07:48.064Z,55.80
2019-05-26T11:10:17.373Z,55.00
2019-05-26T11:12:45.892Z,54.40
2019-05-26T11:15:14.898Z,54.30
2019-05-26T11:17:43.452Z,54.10
2019-05-26T11:20:12.550Z,55.00
2019-05-26T11:22:41.202Z,52.80
2019-05-26T11:25:11.366Z,54.60
2019-05-26T11:27:39.913Z,54.50
2019-05-26T11:30:14.092Z,55.90
2019-05-26T11:32:42.641Z,54.40
2019-05-26T11:35:11.621Z,53.40
2019-05-26T11:37:40.129Z,55.30
2019-05-26T11:40:10.743Z,56.00
2019-05-26T11:42:39.253Z,54.80
2019-05-26T11:45:09.314Z,53.10
2019-05-26T11:47:37.792Z,54.30
2019-05-26T11:50:08.287Z,55.00
2019-05-26T11:52:36.792Z,55.20
2019-05-26T11:55:08.468Z,56.60
2019-05-26T11:57:37.737Z,57.30
2019-05-26T12:00:09.519Z,57.90
2019-05-26T12:02:38.765Z,55.90
2019-05-26T12:05:10.287Z,55.20
2019-05-26T12:07:38.885Z,54.80
2019-05-26T12:10:14.086Z,55.50
2019-05-26T12:12:42.995Z,53.30
2019-05-26T12:15:12.481Z,54.70
2019-05-26T12:17:44.244Z,53.30
2019-05-26T12:20:13.259Z,53.80
2019-05-26T12:22:41.812Z,53.70
2019-05-26T12:25:10.787Z,53.80
2019-05-26T12:27:39.770Z,54.20
2019-05-26T12:30:09.724Z,54.00
2019-05-26T12:32:38.381Z,55.20
2019-05-26T12:35:08.597Z,55.30
2019-05-26T12:37:37.141Z,55.00
2019-05-26T12:40:09.595Z,54.90
2019-05-26T12:42:38.224Z,54.40
2019-05-26T12:45:08.057Z,55.40
2019-05-26T12:47:36.880Z,55.90
2019-05-26T12:50:07.279Z,56.10
2019-05-26T12:52:35.924Z,55.50
2019-05-26T12:55:09.682Z,55.80
2019-05-26T12:57:38.562Z,56.80
2019-05-26T13:00:08.538Z,57.30
2019-05-26T13:02:37.090Z,57.80
2019-05-26T13:05:07.455Z,58.10
2019-05-26T13:07:36.182Z,58.50
2019-05-26T13:10:06.762Z,58.10
2019-05-26T13:12:35.335Z,58.30
2019-05-26T13:15:07.592Z,58.60
2019-05-26T13:17:36.111Z,59.40
2019-05-26T13:20:07.663Z,60.00
2019-05-26T13:22:36.403Z,60.80
2019-05-26T13:25:06.926Z,59.60
2019-05-26T13:27:35.522Z,60.10
2019-05-26T13:30:08.561Z,59.00
2019-05-26T13:32:37.097Z,59.00
2019-05-26T13:35:07.409Z,59.60
2019-05-26T13:37:35.914Z,60.00
2019-05-26T13:40:08.639Z,60.60
2019-05-26T13:42:37.366Z,60.70
2019-05-26T13:45:21.125Z,60.60
2019-05-26T13:47:38.279Z,60.30
2019-05-26T13:50:08.379Z,61.40
2019-05-26T13:52:36.964Z,60.80
2019-05-26T13:55:08.612Z,60.80
2019-05-26T13:57:37.405Z,61.70
2019-05-26T14:00:11.610Z,62.50
2019-05-26T14:02:42.057Z,62.60
2019-05-26T14:05:10.881Z,62.80
2019-05-26T14:07:39.494Z,61.90
2019-05-26T14:10:11.742Z,62.30
2019-05-26T14:12:43.042Z,63.40
2019-05-26T14:15:13.299Z,63.80
2019-05-26T14:17:42.712Z,64.00
2019-05-26T14:20:15.420Z,63.80
2019-05-26T14:22:44.285Z,63.90
2019-05-26T14:25:15.593Z,63.30
2019-05-26T14:27:43.436Z,64.00
2019-05-26T14:30:12.073Z,62.30
2019-05-26T14:32:43.549Z,61.90
2019-05-26T14:35:12.149Z,61.90
2019-05-26T14:37:40.708Z,62.30
2019-05-26T14:40:14.252Z,61.00
2019-05-26T14:42:42.507Z,61.70
2019-05-26T14:45:11.538Z,60.00
2019-05-26T14:47:40.082Z,60.20
2019-05-26T14:50:10.408Z,60.30
2019-05-26T14:52:39.228Z,60.80
2019-05-26T14:55:08.041Z,59.90
2019-05-26T14:57:36.659Z,59.50
2019-05-26T15:00:11.056Z,60.70
2019-05-26T15:02:39.725Z,59.10
2019-05-26T15:05:08.515Z,59.10
2019-05-26T15:07:40.532Z,56.30
2019-05-26T15:10:09.587Z,56.70
2019-05-26T15:12:41.303Z,57.80
2019-05-26T15:15:12.208Z,57.30
2019-05-26T15:17:42.284Z,58.60
2019-05-26T15:20:14.693Z,58.30
2019-05-26T15:22:44.613Z,59.20
2019-05-26T15:25:13.238Z,59.10
2019-05-26T15:27:41.809Z,58.70
2019-05-26T15:30:15.190Z,58.80
2019-05-26T15:32:43.688Z,59.10
2019-05-26T15:35:13.078Z,59.90
2019-05-26T15:37:41.822Z,59.90
2019-05-26T15:40:10.808Z,60.50
2019-05-26T15:42:39.277Z,60.60
2019-05-26T15:45:08.483Z,60.90
2019-05-26T15:47:37.005Z,60.30
2019-05-26T15:50:08.483Z,59.30
2019-05-26T15:52:37.028Z,60.40
2019-05-26T15:55:06.032Z,61.10
2019-05-26T15:57:34.572Z,61.50
2019-05-26T16:00:05.172Z,61.00
2019-05-26T16:02:33.685Z,61.30
2019-05-26T16:05:04.894Z,61.20
2019-05-26T16:07:34.926Z,61.10
2019-05-26T16:10:05.338Z,61.90
2019-05-26T16:12:33.846Z,62.00
2019-05-26T16:15:05.939Z,62.40
2019-05-26T16:17:34.232Z,63.00
2019-05-26T16:20:03.426Z,63.00
2019-05-26T16:22:32.082Z,60.60
2019-05-26T16:25:01.159Z,60.60
2019-05-26T16:27:29.881Z,60.30
2019-05-26T16:29:58.442Z,60.10
2019-05-26T16:32:27.206Z,60.10
2019-05-26T16:34:55.807Z,59.80
2019-05-26T16:37:24.454Z,60.40
2019-05-26T16:39:55.944Z,60.80
2019-05-26T16:42:23.603Z,61.70
2019-05-26T16:44:54.502Z,61.40
2019-05-26T16:47:27.793Z,62.50
2019-05-26T16:49:59.727Z,62.90
2019-05-26T16:52:28.502Z,63.60
2019-05-26T16:54:58.253Z,62.40
2019-05-26T16:57:26.871Z,62.80
2019-05-26T16:59:58.977Z,61.90
2019-05-26T17:02:27.348Z,61.70
2019-05-26T17:04:56.154Z,62.50
2019-05-26T17:07:24.797Z,63.20
2019-05-26T17:09:53.363Z,62.90
2019-05-26T17:12:21.963Z,62.20
2019-05-26T17:14:50.624Z,62.80
2019-05-26T17:17:19.274Z,63.10
2019-05-26T17:19:47.808Z,62.50
2019-05-26T17:22:16.304Z,62.60
2019-05-26T17:24:45.160Z,62.40
2019-05-26T17:27:13.697Z,61.60
2019-05-26T17:29:43.973Z,62.10
2019-05-26T17:32:12.605Z,61.80
2019-05-26T17:34:41.136Z,62.40
2019-05-26T17:37:09.825Z,62.80
2019-05-26T17:39:38.425Z,64.10
2019-05-26T17:42:07.174Z,64.40
2019-05-26T17:44:35.707Z,64.40
2019-05-26T17:47:04.433Z,65.20
2019-05-26T17:49:32.943Z,65.70
2019-05-26T17:52:01.499Z,64.90
2019-05-26T17:54:29.990Z,65.80
2019-05-26T17:56:58.457Z,65.90
2019-05-26T17:59:27.214Z,65.60
2019-05-26T18:01:55.794Z,65.90
2019-05-26T18:04:27.014Z,66.10
2019-05-26T18:06:55.758Z,66.30
2019-05-26T18:09:24.520Z,66.40
2019-05-26T18:11:53.083Z,66.70
2019-05-26T18:14:21.800Z,66.40
2019-05-26T18:16:50.314Z,66.80
2019-05-26T18:19:18.791Z,67.40
2019-05-26T18:21:47.239Z,67.80
2019-05-26T18:24:15.695Z,67.90
2019-05-26T18:26:46.669Z,68.10
2019-05-26T18:29:15.144Z,68.30
2019-05-26T18:31:44.318Z,68.70
2019-05-26T18:34:15.172Z,68.70
2019-05-26T18:36:43.418Z,68.60
2019-05-26T18:39:11.985Z,68.60
2019-05-26T18:41:40.470Z,68.40
2019-05-26T18:44:09.270Z,68.60
2019-05-26T18:46:37.735Z,69.30
2019-05-26T18:49:06.266Z,69.50
2019-05-26T18:51:34.865Z,69.80
2019-05-26T18:54:03.390Z,70.00
2019-05-26T18:56:31.916Z,70.50
2019-05-26T18:59:00.415Z,71.20
2019-05-26T19:01:29.222Z,71.40
2019-05-26T19:03:58.096Z,72.00
2019-05-26T19:06:26.550Z,72.80
2019-05-26T19:08:55.029Z,73.00
2019-05-26T19:11:26.234Z,73.60
2019-05-26T19:13:54.050Z,74.20
2019-05-26T19:16:22.617Z,74.50
2019-05-26T19:18:51.134Z,74.50
2019-05-26T19:21:19.649Z,74.90
2019-05-26T19:23:48.200Z,75.50
2019-05-26T19:26:16.738Z,75.80
2019-05-26T19:28:45.216Z,75.90
2019-05-26T19:31:13.772Z,76.40
2019-05-26T19:33:42.317Z,76.60
2019-05-26T19:36:12.509Z,77.10
2019-05-26T19:38:41.015Z,77.30
2019-05-26T19:41:09.771Z,77.50
2019-05-26T19:43:38.266Z,77.60
2019-05-26T19:46:07.162Z,77.40
2019-05-26T19:48:37.323Z,77.60
2019-05-26T19:51:07.011Z,77.90
2019-05-26T19:53:35.605Z,78.30
2019-05-26T19:56:04.243Z,78.50
2019-05-26T19:58:32.799Z,78.80
2019-05-26T20:01:01.849Z,78.90
2019-05-26T20:03:30.410Z,79.90
2019-05-26T20:05:59.076Z,81.50
2019-05-26T20:08:27.633Z,82.30
2019-05-26T20:10:56.239Z,83.70
2019-05-26T20:13:24.705Z,84.10
2019-05-26T20:15:53.277Z,85.00
2019-05-26T20:18:21.855Z,86.20
2019-05-26T20:20:52.435Z,86.20
2019-05-26T20:23:23.272Z,86.80
2019-05-26T20:25:51.850Z,87.50
2019-05-26T20:28:20.417Z,88.20
2019-05-26T20:30:48.994Z,88.90
2019-05-26T20:33:17.687Z,88.70
2019-05-26T20:35:50.774Z,89.10
2019-05-26T20:38:16.781Z,89.80
2019-05-26T20:40:45.679Z,89.50
2019-05-26T20:43:14.609Z,89.70
2019-05-26T20:45:43.090Z,89.90
2019-05-26T20:48:11.683Z,89.60
2019-05-26T20:50:40.211Z,89.80
2019-05-26T20:53:08.751Z,90.20
2019-05-26T20:55:37.310Z,90.10
2019-05-26T20:58:06.029Z,90.10
2019-05-26T21:00:34.571Z,90.20
2019-05-26T21:03:03.114Z,90.00
2019-05-26T21:05:31.745Z,90.00
2019-05-26T21:08:00.227Z,90.20
2019-05-26T21:10:28.683Z,90.10
2019-05-26T21:12:58.740Z,90.20
2019-05-26T21:15:27.268Z,90.10
2019-05-26T21:17:55.847Z,90.10
2019-05-26T21:20:24.418Z,90.10
2019-05-26T21:22:52.973Z,90.10
2019-05-26T21:25:21.541Z,90.00
2019-05-26T21:27:50.113Z,90.00
2019-05-26T21:30:19.048Z,90.00
2019-05-26T21:32:47.802Z,90.00
2019-05-26T21:35:16.560Z,90.10
2019-05-26T21:37:45.099Z,90.20
2019-05-26T21:40:14.922Z,90.00
2019-05-26T21:42:43.844Z,90.00
2019-05-26T21:45:14.643Z,89.90
2019-05-26T21:47:43.176Z,89.70
2019-05-26T21:50:12.003Z,89.80
2019-05-26T21:52:42.172Z,89.40
2019-05-26T21:55:13.038Z,89.90
2019-05-26T21:57:42.026Z,89.80
2019-05-26T22:00:15.771Z,90.10
2019-05-26T22:02:43.585Z,90.30
2019-05-26T22:05:12.371Z,90.20
2019-05-26T22:07:41.799Z,90.20
2019-05-26T22:10:10.544Z,90.50
2019-05-26T22:12:40.634Z,90.30
2019-05-26T22:15:09.643Z,90.60
2019-05-26T22:17:38.203Z,90.60
2019-05-26T22:20:07.631Z,90.80
2019-05-26T22:22:36.666Z,90.90
2019-05-26T22:25:06.750Z,90.90
2019-05-26T22:27:40.866Z,90.90
2019-05-26T22:30:10.239Z,90.90
2019-05-26T22:32:38.864Z,90.90
2019-05-26T22:35:09.547Z,90.90
2019-05-26T22:37:38.147Z,90.90
2019-05-26T22:40:07.758Z,91.00
2019-05-26T22:42:36.368Z,90.90
2019-05-26T22:45:08.022Z,91.10
2019-05-26T22:47:36.648Z,91.00
2019-05-26T22:50:08.774Z,91.10
2019-05-26T22:52:37.333Z,91.10
2019-05-26T22:55:09.391Z,91.30
2019-05-26T22:57:37.960Z,91.40
2019-05-26T23:00:09.101Z,91.50
2019-05-26T23:02:37.824Z,91.50
2019-05-26T23:05:09.484Z,91.60
2019-05-26T23:07:38.082Z,91.50
2019-05-26T23:10:09.306Z,91.50
2019-05-26T23:12:37.904Z,91.60
2019-05-26T23:15:09.063Z,91.70
2019-05-26T23:17:39.393Z,91.60
2019-05-26T23:20:08.574Z,91.60
2019-05-26T23:22:38.771Z,91.70
2019-05-26T23:25:08.135Z,91.90
2019-05-26T23:27:36.835Z,91.90
2019-05-26T23:30:09.506Z,91.80
2019-05-26T23:32:38.046Z,91.90
2019-05-26T23:35:07.222Z,91.90
2019-05-26T23:37:36.097Z,92.10
2019-05-26T23:40:08.774Z,91.90
2019-05-26T23:42:40.609Z,92.00
2019-05-26T23:45:14.069Z,92.00
2019-05-26T23:47:41.765Z,92.00
2019-05-26T23:50:11.069Z,92.10
2019-05-26T23:52:41.605Z,92.40
2019-05-26T23:55:11.113Z,92.20
2019-05-26T23:57:39.632Z,92.00
